This is the latest recevied weather packets stored in our database for station/object KD9YTS-13. If no packets are shown the sender has not sent any weather packets the latest 10 day(s).
| Time | Temp. | Humidity | Pressure | Rain* | Wind** | Luminosity | Snow |
|---|---|---|---|---|---|---|---|
| 1777628183 | -17.78° C | 100% | - | 0 mm | - | - | - |
| 1777626986 | -2.22° C | 8% | - | 0 mm | - | - | - |
| 1777625783 | -1.67° C | 8% | - | 0 mm | - | - | - |
| 1777624583 | -17.78° C | 100% | - | 0 mm | - | - | - |
| 1777622183 | -17.78° C | 100% | - | 0 mm | - | - | - |
| 1777620983 | -0.56° C | 8% | - | 0 mm | - | - | - |
| 1777618583 | -17.78° C | 100% | - | 0 mm | - | - | - |
| 1777617383 | -17.78° C | 100% | - | 0 mm | - | - | - |
| 1777616186 | -17.78° C | 100% | - | 0 mm | - | - | - |
| 1777614983 | -17.78° C | 100% | - | 0 mm | - | - | - |
| 1777613783 | 2.22° C | 7% | - | 0 mm | - | - | - |
| 1777612586 | -17.78° C | 100% | - | 0 mm | - | - | - |
| 1777611383 | -17.78° C | 100% | - | 0 mm | - | - | - |
| 1777610183 | -17.78° C | 100% | - | 0 mm | - | - | - |
| 1777608986 | 3.89° C | 6% | - | 0 mm | - | - | - |
| 1777607783 | -17.78° C | 100% | - | 0 mm | - | - | - |
| 1777606583 | -17.78° C | 100% | - | 0 mm | - | - | - |
| 1777605385 | -17.78° C | 100% | - | 0 mm | - | - | - |
| 1777604184 | 4.44° C | 6% | - | 0 mm | - | - | - |
| 1777602983 | 4.44° C | 6% | - | 0 mm | - | - | - |
| 1777600583 | -17.78° C | 100% | - | 0 mm | - | - | - |
| 1777599383 | -17.78° C | 100% | - | 0 mm | - | - | - |
| 1777598183 | 6.11° C | 5% | - | 0 mm | - | - | - |
| 1777596984 | -17.78° C | 100% | - | 0 mm | - | - | - |
| 1777595782 | -17.78° C | 100% | - | 0 mm | - | - | - |
* Rain latest hour (hover to see other rain measurements)
** Current wind speed in m/s (hover to see current wind gust speed)